createdAt,value
2023-05-19T00:01:39.118Z,11.65
2023-05-19T00:03:54.008Z,11.70
2023-05-19T00:05:59.045Z,11.67
2023-05-19T00:08:03.213Z,11.68
2023-05-19T00:10:07.452Z,11.67
2023-05-19T00:12:11.706Z,11.64
2023-05-19T00:14:15.697Z,11.56
2023-05-19T00:16:19.255Z,11.51
2023-05-19T00:18:23.378Z,11.51
2023-05-19T00:20:28.079Z,11.49
2023-05-19T00:22:31.078Z,11.49
2023-05-19T00:24:34.225Z,11.50
2023-05-19T00:26:37.566Z,11.30
2023-05-19T00:28:41.468Z,11.19
2023-05-19T00:30:44.367Z,10.97
2023-05-19T00:32:47.480Z,10.91
2023-05-19T00:34:50.556Z,10.85
2023-05-19T00:36:54.885Z,10.62
2023-05-19T00:38:58.019Z,10.67
2023-05-19T00:41:01.091Z,10.66
2023-05-19T00:43:05.480Z,10.44
2023-05-19T00:45:10.824Z,10.65
2023-05-19T00:47:14.394Z,10.34
2023-05-19T00:49:17.649Z,10.50
2023-05-19T00:51:20.917Z,10.50
2023-05-19T00:53:26.382Z,10.58
2023-05-19T00:55:30.702Z,10.51
2023-05-19T00:57:34.013Z,10.63
2023-05-19T00:59:38.815Z,10.68
2023-05-19T01:01:43.214Z,10.72
2023-05-19T01:03:50.427Z,10.72
2023-05-19T01:05:54.433Z,10.63
2023-05-19T01:07:57.613Z,10.72
2023-05-19T01:10:04.509Z,10.80
2023-05-19T01:12:10.948Z,10.80
2023-05-19T01:14:14.395Z,10.73
2023-05-19T01:16:23.535Z,10.54
2023-05-19T01:18:34.692Z,10.41
2023-05-19T01:20:41.685Z,10.41
2023-05-19T01:23:01.699Z,10.41
2023-05-19T01:25:37.110Z,10.18
2023-05-19T01:28:07.977Z,10.29
2023-05-19T01:30:35.146Z,10.38
2023-05-19T01:32:42.953Z,10.48
2023-05-19T01:34:47.993Z,10.30
2023-05-19T01:36:54.854Z,10.21
2023-05-19T01:39:00.697Z,10.33
2023-05-19T01:41:05.082Z,10.33
2023-05-19T01:43:10.016Z,10.37
2023-05-19T01:45:14.951Z,10.36
2023-05-19T01:47:19.801Z,10.11
2023-05-19T01:49:23.825Z,10.18
2023-05-19T01:51:27.627Z,10.20
2023-05-19T01:53:30.884Z,10.21
2023-05-19T01:55:34.577Z,10.00
2023-05-19T01:57:47.838Z,9.84
2023-05-19T02:00:05.680Z,9.85
2023-05-19T02:02:26.224Z,9.71
2023-05-19T02:04:39.138Z,9.67
2023-05-19T02:06:51.032Z,9.73
2023-05-19T02:08:59.718Z,9.80
2023-05-19T02:11:07.329Z,9.72
2023-05-19T02:13:12.729Z,9.79
2023-05-19T02:15:17.977Z,9.63
2023-05-19T02:17:22.046Z,9.37
2023-05-19T02:19:28.501Z,9.69
2023-05-19T02:21:32.699Z,9.77
2023-05-19T02:23:35.940Z,9.80
2023-05-19T02:25:39.617Z,9.83
2023-05-19T02:27:45.755Z,9.80
2023-05-19T02:29:49.252Z,9.81
2023-05-19T02:31:52.250Z,9.84
2023-05-19T02:33:55.610Z,9.60
2023-05-19T02:36:01.790Z,9.70
2023-05-19T02:38:05.295Z,9.72
2023-05-19T02:40:11.038Z,9.68
2023-05-19T02:42:17.729Z,9.55
2023-05-19T02:44:21.997Z,9.34
2023-05-19T02:46:25.675Z,9.50
2023-05-19T02:48:30.771Z,9.31
2023-05-19T02:50:34.053Z,9.20
2023-05-19T02:52:39.765Z,9.00
2023-05-19T02:57:58.553Z,9.25
2023-05-19T03:00:01.843Z,8.93
2023-05-19T03:02:05.257Z,8.86
2023-05-19T03:04:08.478Z,8.82
2023-05-19T03:06:11.671Z,9.01
2023-05-19T03:08:16.014Z,8.91
2023-05-19T03:10:18.977Z,8.87
2023-05-19T03:12:22.208Z,9.12
2023-05-19T03:14:25.108Z,9.19
2023-05-19T03:16:28.484Z,9.21
2023-05-19T03:18:31.771Z,9.09
2023-05-19T03:20:34.768Z,8.92
2023-05-19T03:22:37.876Z,9.11
2023-05-19T03:24:42.200Z,8.84
2023-05-19T03:26:46.478Z,8.80
2023-05-19T03:28:49.948Z,8.95
2023-05-19T03:30:53.196Z,8.87
2023-05-19T03:33:01.780Z,8.75
2023-05-19T03:35:05.597Z,8.74
2023-05-19T03:37:10.679Z,8.92
2023-05-19T03:39:14.559Z,9.05
2023-05-19T03:41:18.951Z,9.12
2023-05-19T03:43:22.361Z,8.76
2023-05-19T03:45:31.341Z,8.71
2023-05-19T03:47:35.771Z,8.57
2023-05-19T03:49:58.706Z,8.88
2023-05-19T03:52:20.300Z,8.98
2023-05-19T03:54:31.835Z,9.07
2023-05-19T03:56:41.033Z,9.10
2023-05-19T03:58:45.104Z,9.08
2023-05-19T04:00:48.098Z,9.09
2023-05-19T04:02:51.301Z,9.09
2023-05-19T04:04:54.559Z,9.03
2023-05-19T04:06:58.054Z,9.13
2023-05-19T04:09:01.228Z,9.10
2023-05-19T04:11:04.337Z,9.15
2023-05-19T04:13:11.520Z,9.23
2023-05-19T04:15:16.747Z,8.80
2023-05-19T04:17:21.958Z,8.67
2023-05-19T04:19:26.857Z,8.64
2023-05-19T04:21:31.851Z,8.76
2023-05-19T04:23:38.312Z,9.09
2023-05-19T04:25:44.452Z,8.93
2023-05-19T04:27:49.438Z,9.06
2023-05-19T04:30:04.342Z,8.97
2023-05-19T04:32:09.484Z,8.91
2023-05-19T04:34:13.260Z,9.17
2023-05-19T04:36:20.978Z,9.39
2023-05-19T04:38:25.621Z,9.54
2023-05-19T04:40:31.748Z,9.54
2023-05-19T04:42:38.545Z,9.37
2023-05-19T04:44:43.784Z,9.50
2023-05-19T04:46:54.339Z,9.68
2023-05-19T04:49:03.562Z,9.82
2023-05-19T04:51:07.759Z,9.90
2023-05-19T04:53:14.579Z,9.91
2023-05-19T04:55:18.306Z,9.89
2023-05-19T04:57:24.484Z,10.17
2023-05-19T04:59:34.420Z,10.53
2023-05-19T05:01:40.576Z,10.78
2023-05-19T05:03:48.101Z,11.10
2023-05-19T05:05:53.041Z,11.28
2023-05-19T05:07:59.232Z,12.02
2023-05-19T05:10:07.201Z,12.82
2023-05-19T05:12:13.263Z,13.39
2023-05-19T05:14:20.472Z,14.27
2023-05-19T05:16:30.574Z,14.96
2023-05-19T05:18:38.683Z,15.76
2023-05-19T05:20:46.267Z,16.16
2023-05-19T05:22:51.484Z,16.46
2023-05-19T05:24:57.247Z,17.18
2023-05-19T05:27:03.573Z,17.42
2023-05-19T05:29:11.372Z,17.92
2023-05-19T05:31:30.103Z,17.83
2023-05-19T05:33:33.979Z,18.72
2023-05-19T05:35:40.630Z,18.12
2023-05-19T05:37:52.316Z,19.15
2023-05-19T05:39:57.050Z,19.18
2023-05-19T05:42:01.591Z,19.82
2023-05-19T05:44:05.550Z,20.41
2023-05-19T05:46:09.164Z,20.47
2023-05-19T05:48:13.226Z,20.72
2023-05-19T05:50:19.927Z,20.73
2023-05-19T05:52:29.769Z,21.35
2023-05-19T05:54:35.205Z,21.34
2023-05-19T05:56:38.914Z,20.20
2023-05-19T05:58:45.362Z,21.54
2023-05-19T06:00:49.431Z,21.99
2023-05-19T06:02:53.295Z,22.17
2023-05-19T06:04:56.827Z,21.98
2023-05-19T06:07:01.745Z,21.45
2023-05-19T06:09:09.021Z,22.24
2023-05-19T06:11:13.367Z,22.85
2023-05-19T06:13:22.296Z,23.08
2023-05-19T06:15:25.505Z,22.71
2023-05-19T06:17:47.671Z,22.10
2023-05-19T06:19:50.884Z,23.19
2023-05-19T06:21:53.946Z,22.57
2023-05-19T06:23:56.929Z,23.24
2023-05-19T06:26:00.010Z,23.21
2023-05-19T06:28:06.014Z,22.65
2023-05-19T06:30:10.996Z,23.26
2023-05-19T06:32:24.594Z,23.35
2023-05-19T06:34:28.222Z,23.46
2023-05-19T06:36:31.446Z,24.05
2023-05-19T06:38:35.626Z,24.25
2023-05-19T06:40:38.883Z,24.29
2023-05-19T06:42:41.870Z,24.64
2023-05-19T06:44:54.566Z,24.55
2023-05-19T06:46:57.557Z,23.68
2023-05-19T06:49:00.805Z,24.69
2023-05-19T06:51:10.187Z,24.60
2023-05-19T06:53:18.090Z,24.43
2023-05-19T06:55:21.561Z,24.66
2023-05-19T06:57:27.299Z,25.02
2023-05-19T06:59:30.404Z,24.91
2023-05-19T07:01:35.250Z,23.65
2023-05-19T07:03:41.968Z,24.83
2023-05-19T07:05:48.049Z,24.57
2023-05-19T07:07:51.377Z,25.01
2023-05-19T07:09:59.358Z,24.84
2023-05-19T07:12:03.579Z,24.49
2023-05-19T07:14:09.760Z,24.68
2023-05-19T07:16:12.851Z,23.76
2023-05-19T07:18:17.650Z,25.11
2023-05-19T07:20:20.893Z,25.22
2023-05-19T07:22:24.858Z,25.26
2023-05-19T07:24:28.044Z,26.18
2023-05-19T07:26:31.118Z,26.09
2023-05-19T07:28:35.659Z,26.26
2023-05-19T07:30:39.081Z,26.33
2023-05-19T07:32:42.397Z,26.04
2023-05-19T07:34:46.939Z,26.51
2023-05-19T07:36:50.338Z,26.88
2023-05-19T07:38:53.922Z,26.91
2023-05-19T07:40:57.058Z,27.27
2023-05-19T07:43:00.456Z,26.92
2023-05-19T07:45:04.360Z,26.70
2023-05-19T07:47:07.389Z,26.75
2023-05-19T07:49:10.564Z,26.09
2023-05-19T07:51:16.287Z,27.26
2023-05-19T07:53:19.532Z,27.35
2023-05-19T07:55:23.388Z,27.22
2023-05-19T07:57:26.821Z,26.91
2023-05-19T07:59:29.907Z,27.09
2023-05-19T08:01:33.533Z,27.90
2023-05-19T08:03:37.324Z,28.18
2023-05-19T08:05:40.690Z,27.95
2023-05-19T08:07:45.249Z,28.48
2023-05-19T08:09:48.231Z,28.34
2023-05-19T08:11:51.247Z,28.32
2023-05-19T08:13:54.392Z,27.36
2023-05-19T08:16:00.119Z,27.88
2023-05-19T08:18:03.589Z,27.43
2023-05-19T08:20:08.735Z,27.19
2023-05-19T08:22:11.679Z,25.87
2023-05-19T08:24:16.509Z,27.15
2023-05-19T08:26:20.295Z,27.56
2023-05-19T08:28:23.660Z,27.51
2023-05-19T08:30:26.661Z,27.81
2023-05-19T08:32:29.962Z,27.74
2023-05-19T08:34:33.755Z,27.45
2023-05-19T08:36:36.748Z,28.32
2023-05-19T08:38:39.644Z,28.23
2023-05-19T08:40:44.632Z,27.88
2023-05-19T08:42:48.058Z,26.62
2023-05-19T08:44:51.694Z,27.73
2023-05-19T08:46:56.096Z,27.17
2023-05-19T08:49:03.206Z,26.58
2023-05-19T08:51:13.575Z,26.15
2023-05-19T08:53:33.338Z,27.08
2023-05-19T08:55:41.180Z,26.95
2023-05-19T08:57:46.569Z,26.94
2023-05-19T08:59:50.097Z,26.92
2023-05-19T09:01:53.846Z,26.80
2023-05-19T09:03:57.469Z,25.81
2023-05-19T09:06:00.847Z,26.21
2023-05-19T09:08:04.998Z,25.41
2023-05-19T09:10:09.276Z,24.71
2023-05-19T09:12:12.476Z,23.60
2023-05-19T09:14:16.785Z,23.27
2023-05-19T09:16:20.187Z,24.62
2023-05-19T09:18:23.492Z,24.43
2023-05-19T09:20:26.428Z,24.80
2023-05-19T09:22:30.658Z,25.16
2023-05-19T09:24:35.146Z,25.52
2023-05-19T09:26:40.109Z,25.46
2023-05-19T09:28:43.125Z,25.26
2023-05-19T09:30:47.477Z,25.45
2023-05-19T09:32:50.552Z,24.87
2023-05-19T09:34:54.634Z,24.81
2023-05-19T09:36:58.045Z,24.20
2023-05-19T09:39:01.332Z,24.80
2023-05-19T09:41:06.988Z,23.45
2023-05-19T09:43:10.106Z,23.90
2023-05-19T09:45:13.189Z,24.23
2023-05-19T09:47:18.074Z,23.46
2023-05-19T09:49:22.808Z,23.68
2023-05-19T09:51:25.884Z,23.79
2023-05-19T09:53:31.020Z,24.00
2023-05-19T09:55:34.533Z,25.14
2023-05-19T09:57:40.174Z,24.65
2023-05-19T09:59:43.633Z,24.99
2023-05-19T10:01:47.347Z,24.25
2023-05-19T10:03:52.287Z,24.14
2023-05-19T10:05:55.261Z,24.41
2023-05-19T10:07:58.776Z,25.01
2023-05-19T10:10:03.968Z,25.30
2023-05-19T10:12:09.306Z,24.87
2023-05-19T10:14:12.363Z,24.97
2023-05-19T10:16:17.392Z,24.65
2023-05-19T10:18:21.019Z,25.01
2023-05-19T10:20:25.648Z,24.00
2023-05-19T10:22:29.652Z,24.34
2023-05-19T10:24:32.712Z,23.87
2023-05-19T10:26:36.290Z,24.48
2023-05-19T10:28:41.199Z,25.08
2023-05-19T10:30:46.149Z,24.76
2023-05-19T10:32:49.763Z,23.73
2023-05-19T10:35:13.375Z,24.53
2023-05-19T10:37:22.826Z,24.12
2023-05-19T10:39:27.886Z,23.83
2023-05-19T10:41:38.160Z,23.52
2023-05-19T10:43:49.801Z,24.19
2023-05-19T10:45:54.870Z,23.66
2023-05-19T10:47:58.025Z,23.85
2023-05-19T10:50:02.077Z,24.02
2023-05-19T10:52:05.915Z,23.58
2023-05-19T10:54:13.651Z,23.09
2023-05-19T10:56:32.831Z,22.26
2023-05-19T10:58:50.655Z,21.80
2023-05-19T11:01:01.592Z,23.10
2023-05-19T11:03:14.943Z,23.64
2023-05-19T11:05:19.585Z,24.23
2023-05-19T11:07:24.670Z,23.71
2023-05-19T11:09:41.746Z,23.84
2023-05-19T11:11:47.291Z,24.09
2023-05-19T11:13:52.818Z,24.15
2023-05-19T11:15:57.367Z,24.06
2023-05-19T11:18:02.780Z,24.07
2023-05-19T11:20:09.964Z,24.32
2023-05-19T11:22:14.289Z,24.94
2023-05-19T11:24:38.131Z,24.82
2023-05-19T11:26:42.786Z,24.76
2023-05-19T11:28:47.764Z,23.91
2023-05-19T11:30:52.288Z,24.15
2023-05-19T11:32:55.862Z,24.30
2023-05-19T11:34:59.258Z,24.51
2023-05-19T11:37:02.990Z,24.64
2023-05-19T11:39:08.714Z,24.32
2023-05-19T11:41:13.567Z,24.43
2023-05-19T11:43:16.643Z,24.82
2023-05-19T11:45:25.791Z,24.46
2023-05-19T11:47:31.999Z,23.67
2023-05-19T11:49:46.981Z,23.89
2023-05-19T11:51:51.528Z,24.53
2023-05-19T11:53:54.805Z,24.64
2023-05-19T11:55:57.745Z,24.66
2023-05-19T11:58:05.968Z,24.94
2023-05-19T12:00:12.803Z,24.84
2023-05-19T12:02:20.974Z,24.61
2023-05-19T12:04:24.147Z,24.57
2023-05-19T12:06:27.399Z,24.82
2023-05-19T12:08:30.959Z,25.05
2023-05-19T12:10:37.768Z,24.68
2023-05-19T12:12:46.072Z,24.05
2023-05-19T12:15:01.168Z,24.44
2023-05-19T12:17:25.538Z,24.65
2023-05-19T12:19:31.253Z,24.81
2023-05-19T12:21:34.770Z,24.26
2023-05-19T12:23:42.579Z,24.76
2023-05-19T12:25:45.642Z,24.08
2023-05-19T12:27:56.145Z,24.20
2023-05-19T12:30:02.146Z,24.45
2023-05-19T12:32:05.943Z,23.25
2023-05-19T12:34:09.906Z,22.85
2023-05-19T12:36:14.426Z,22.58
2023-05-19T12:38:17.558Z,23.11
2023-05-19T12:40:22.335Z,23.67
2023-05-19T12:42:30.994Z,23.60
2023-05-19T12:44:38.401Z,24.20
2023-05-19T12:46:44.238Z,24.58
2023-05-19T12:48:48.117Z,24.92
2023-05-19T12:50:53.875Z,25.08
2023-05-19T12:53:00.427Z,24.76
2023-05-19T12:55:09.428Z,24.83
2023-05-19T12:57:13.880Z,24.34
2023-05-19T12:59:38.436Z,24.97
2023-05-19T13:01:46.834Z,24.64
2023-05-19T13:03:51.065Z,24.49
2023-05-19T13:05:59.584Z,24.62
2023-05-19T13:08:03.977Z,24.60
2023-05-19T13:10:08.171Z,24.30
2023-05-19T13:12:11.521Z,24.17
2023-05-19T13:14:19.054Z,24.73
2023-05-19T13:16:23.434Z,25.02
2023-05-19T13:18:28.384Z,24.91
2023-05-19T13:20:31.904Z,25.36
2023-05-19T13:22:35.864Z,25.30
2023-05-19T13:24:38.942Z,25.11
2023-05-19T13:26:42.269Z,24.28
2023-05-19T13:28:45.323Z,24.58
2023-05-19T13:30:49.592Z,25.02
2023-05-19T13:32:53.505Z,25.51
2023-05-19T13:34:58.719Z,25.79
2023-05-19T13:37:02.022Z,25.80
2023-05-19T13:39:05.466Z,25.36
2023-05-19T13:41:16.049Z,25.29
2023-05-19T13:43:19.253Z,25.34
2023-05-19T13:45:23.607Z,25.44
2023-05-19T13:47:28.283Z,24.56
2023-05-19T13:49:31.247Z,24.62
2023-05-19T13:51:38.418Z,24.15
2023-05-19T13:53:43.568Z,24.36
2023-05-19T13:55:47.020Z,24.67
2023-05-19T13:57:51.638Z,25.10
2023-05-19T14:00:02.746Z,25.29
2023-05-19T14:02:15.268Z,25.44
2023-05-19T14:04:20.413Z,24.86
2023-05-19T14:06:24.921Z,25.11
2023-05-19T14:08:29.515Z,25.34
2023-05-19T14:10:32.770Z,25.03
2023-05-19T14:12:55.001Z,25.22
2023-05-19T14:15:02.557Z,24.79
2023-05-19T14:17:06.380Z,24.72
2023-05-19T14:19:10.109Z,23.72
2023-05-19T14:21:13.655Z,23.66
2023-05-19T14:23:17.849Z,23.85
2023-05-19T14:25:22.248Z,23.20
2023-05-19T14:27:25.414Z,23.68
2023-05-19T14:29:31.079Z,23.44
2023-05-19T14:31:34.519Z,23.93
2023-05-19T14:33:40.126Z,22.88
2023-05-19T14:35:43.146Z,22.74
2023-05-19T14:37:46.453Z,22.95
2023-05-19T14:39:49.781Z,23.38
2023-05-19T14:41:54.166Z,23.18
2023-05-19T14:43:57.158Z,23.63
2023-05-19T14:46:00.381Z,23.57
2023-05-19T14:48:03.597Z,23.69
2023-05-19T14:50:07.804Z,23.09
2023-05-19T14:52:10.891Z,22.39
2023-05-19T14:54:14.028Z,21.95
2023-05-19T14:56:17.046Z,21.62
2023-05-19T14:58:29.044Z,21.40
2023-05-19T15:00:32.514Z,22.05
2023-05-19T15:02:36.037Z,21.69
2023-05-19T15:04:39.666Z,21.84
2023-05-19T15:06:44.373Z,22.38
2023-05-19T15:08:49.592Z,22.54
2023-05-19T15:10:53.007Z,22.26
2023-05-19T15:12:57.536Z,22.14
2023-05-19T15:15:02.946Z,22.37
2023-05-19T15:17:06.387Z,22.52
2023-05-19T15:19:09.868Z,22.43
2023-05-19T15:21:17.187Z,22.49
2023-05-19T15:23:20.395Z,22.41
2023-05-19T15:25:23.765Z,21.77
2023-05-19T15:27:27.613Z,22.06
2023-05-19T15:29:30.602Z,21.93
2023-05-19T15:31:37.387Z,22.43
2023-05-19T15:33:41.179Z,22.58
2023-05-19T15:35:44.225Z,22.75
2023-05-19T15:37:47.213Z,22.44
2023-05-19T15:39:50.164Z,22.42
2023-05-19T15:41:53.139Z,22.28
2023-05-19T15:43:56.121Z,22.07
2023-05-19T15:45:59.137Z,22.07
2023-05-19T15:48:03.833Z,22.12
2023-05-19T15:50:08.166Z,22.34
2023-05-19T15:52:11.128Z,22.16
2023-05-19T15:54:14.155Z,21.82
2023-05-19T15:56:19.185Z,21.97
2023-05-19T15:58:22.407Z,21.87
2023-05-19T16:00:25.471Z,21.92
2023-05-19T16:02:28.694Z,22.03
2023-05-19T16:04:33.380Z,22.07
2023-05-19T16:06:36.458Z,21.75
2023-05-19T16:08:39.838Z,22.08
2023-05-19T16:10:42.868Z,22.26
2023-05-19T16:12:45.890Z,22.23
2023-05-19T16:14:49.534Z,22.04
2023-05-19T16:16:52.836Z,21.77
2023-05-19T16:18:56.026Z,21.60
2023-05-19T16:21:00.759Z,21.63
2023-05-19T16:23:04.266Z,21.67
2023-05-19T16:25:09.244Z,21.51
2023-05-19T16:27:12.425Z,21.42
2023-05-19T16:29:16.642Z,21.22
2023-05-19T16:31:19.882Z,21.44
2023-05-19T16:33:23.012Z,21.44
2023-05-19T16:35:27.839Z,21.53
2023-05-19T16:37:32.274Z,21.56
2023-05-19T16:39:37.512Z,21.57
2023-05-19T16:41:40.490Z,21.55
2023-05-19T16:43:43.744Z,21.59
2023-05-19T16:45:46.928Z,21.59
2023-05-19T16:47:50.245Z,21.61
2023-05-19T16:49:53.259Z,21.56
2023-05-19T16:51:56.727Z,21.35
2023-05-19T16:54:01.084Z,21.44
2023-05-19T16:56:04.522Z,21.35
2023-05-19T16:58:08.009Z,21.09
2023-05-19T17:00:15.035Z,20.98
2023-05-19T17:02:18.152Z,20.97
2023-05-19T17:04:21.283Z,21.09
2023-05-19T17:06:24.295Z,21.20
2023-05-19T17:08:27.498Z,21.22
2023-05-19T17:10:32.310Z,20.96
2023-05-19T17:12:36.386Z,20.99
2023-05-19T17:14:42.319Z,20.97
2023-05-19T17:16:45.572Z,21.05
2023-05-19T17:18:49.026Z,21.26
2023-05-19T17:20:52.656Z,21.02
2023-05-19T17:22:55.820Z,20.84
2023-05-19T17:24:59.033Z,20.64
2023-05-19T17:27:03.549Z,20.81
2023-05-19T17:29:06.854Z,21.02
2023-05-19T17:31:13.548Z,20.75
2023-05-19T17:33:16.714Z,20.80
2023-05-19T17:35:20.153Z,20.81
2023-05-19T17:37:25.735Z,20.88
2023-05-19T17:39:29.072Z,20.84
2023-05-19T17:41:32.219Z,20.87
2023-05-19T17:43:37.137Z,20.64
2023-05-19T17:45:40.316Z,20.69
2023-05-19T17:47:43.343Z,20.63
2023-05-19T17:49:46.579Z,20.75
2023-05-19T17:51:50.376Z,20.52
2023-05-19T17:53:54.029Z,20.70
2023-05-19T17:56:01.624Z,20.52
2023-05-19T17:58:05.133Z,20.29
2023-05-19T18:00:11.859Z,20.09
2023-05-19T18:02:16.060Z,20.08
2023-05-19T18:04:19.955Z,20.24
2023-05-19T18:06:24.359Z,20.05
2023-05-19T18:08:28.053Z,19.99
2023-05-19T18:10:32.086Z,20.20
2023-05-19T18:12:35.702Z,20.13
2023-05-19T18:14:38.881Z,20.02
2023-05-19T18:16:43.578Z,19.99
2023-05-19T18:18:50.423Z,20.08
2023-05-19T18:21:28.366Z,19.93
2023-05-19T18:23:31.854Z,19.92
2023-05-19T18:25:34.901Z,19.83
2023-05-19T18:27:38.383Z,19.94
2023-05-19T18:29:41.745Z,19.79
2023-05-19T18:31:46.173Z,19.80
2023-05-19T18:33:49.470Z,19.72
2023-05-19T18:35:52.445Z,19.68
2023-05-19T18:37:57.589Z,19.62
2023-05-19T18:40:04.338Z,19.67
2023-05-19T18:42:07.888Z,19.47
2023-05-19T18:44:12.559Z,19.40
2023-05-19T18:46:15.586Z,19.30
2023-05-19T18:48:21.146Z,19.25
2023-05-19T18:50:26.123Z,19.31
2023-05-19T18:52:30.844Z,19.23
2023-05-19T18:54:33.963Z,19.25
2023-05-19T18:56:37.479Z,19.25
2023-05-19T18:58:40.770Z,19.21
2023-05-19T19:00:43.914Z,19.07
2023-05-19T19:02:48.210Z,19.21
2023-05-19T19:04:52.711Z,19.23
2023-05-19T19:06:55.997Z,19.09
2023-05-19T19:08:58.959Z,19.10
2023-05-19T19:11:02.154Z,19.08
2023-05-19T19:13:05.145Z,18.87
2023-05-19T19:15:11.343Z,18.78
2023-05-19T19:17:14.498Z,18.75
2023-05-19T19:19:17.622Z,18.78
2023-05-19T19:21:23.973Z,18.60
2023-05-19T19:23:27.030Z,18.48
2023-05-19T19:25:30.175Z,18.68
2023-05-19T19:27:35.553Z,18.69
2023-05-19T19:29:38.627Z,18.56
2023-05-19T19:31:41.807Z,18.53
2023-05-19T19:33:45.085Z,18.42
2023-05-19T19:35:48.109Z,18.50
2023-05-19T19:37:52.775Z,18.52
2023-05-19T19:39:55.767Z,18.40
2023-05-19T19:41:59.119Z,18.38
2023-05-19T19:44:02.221Z,18.44
2023-05-19T19:46:07.095Z,18.38
2023-05-19T19:48:10.617Z,18.41
2023-05-19T19:50:14.138Z,18.26
2023-05-19T19:52:17.996Z,18.34
2023-05-19T19:54:22.525Z,18.16
2023-05-19T19:56:27.408Z,18.21
2023-05-19T19:58:31.158Z,18.08
2023-05-19T20:00:34.466Z,18.05
2023-05-19T20:02:48.303Z,18.02
2023-05-19T20:04:58.664Z,17.91
2023-05-19T20:07:01.848Z,17.91
2023-05-19T20:09:05.558Z,17.85
2023-05-19T20:11:10.843Z,17.72
2023-05-19T20:13:14.144Z,17.79
2023-05-19T20:15:17.459Z,17.74
2023-05-19T20:17:20.409Z,17.66
2023-05-19T20:19:25.451Z,17.65
2023-05-19T20:21:28.541Z,17.68
2023-05-19T20:23:31.815Z,17.72
2023-05-19T20:25:35.218Z,17.70
2023-05-19T20:27:39.930Z,17.77
2023-05-19T20:29:43.031Z,17.76
2023-05-19T20:31:46.624Z,17.72
2023-05-19T20:33:49.689Z,17.72
2023-05-19T20:35:52.836Z,17.54
2023-05-19T20:37:56.913Z,17.59
2023-05-19T20:39:59.896Z,17.52
2023-05-19T20:42:03.159Z,17.52
2023-05-19T20:44:08.443Z,17.56
2023-05-19T20:46:11.936Z,17.47
2023-05-19T20:48:15.976Z,17.42
2023-05-19T20:50:19.467Z,17.43
2023-05-19T20:52:22.648Z,17.30
2023-05-19T20:54:26.834Z,17.36
2023-05-19T20:56:30.175Z,17.21
2023-05-19T20:58:33.669Z,17.35
2023-05-19T21:00:38.222Z,17.30
2023-05-19T21:02:41.619Z,17.30
2023-05-19T21:04:46.273Z,17.37
2023-05-19T21:06:49.413Z,17.31
2023-05-19T21:08:52.685Z,17.35
2023-05-19T21:10:55.920Z,17.28
2023-05-19T21:12:58.906Z,17.31
2023-05-19T21:15:03.909Z,17.23
2023-05-19T21:17:08.673Z,17.29
2023-05-19T21:19:11.807Z,17.25
2023-05-19T21:21:15.509Z,17.24
2023-05-19T21:23:18.723Z,17.28
2023-05-19T21:25:21.700Z,17.34
2023-05-19T21:27:24.977Z,17.25
2023-05-19T21:29:28.142Z,17.38
2023-05-19T21:31:31.447Z,17.34
2023-05-19T21:33:35.965Z,17.39
2023-05-19T21:35:39.335Z,17.37
2023-05-19T21:37:42.271Z,17.34
2023-05-19T21:39:45.753Z,17.32
2023-05-19T21:41:48.765Z,17.21
2023-05-19T21:43:51.795Z,17.22
2023-05-19T21:45:58.234Z,17.14
2023-05-19T21:48:01.777Z,17.12
2023-05-19T21:50:09.142Z,17.09
2023-05-19T21:52:12.262Z,17.04
2023-05-19T21:54:18.169Z,16.91
2023-05-19T21:56:24.243Z,17.00
2023-05-19T21:58:28.534Z,16.90
2023-05-19T22:00:32.250Z,16.90
2023-05-19T22:02:37.704Z,16.79
2023-05-19T22:04:41.908Z,16.83
2023-05-19T22:06:53.277Z,16.80
2023-05-19T22:08:59.372Z,16.75
2023-05-19T22:11:10.680Z,16.56
2023-05-19T22:13:17.415Z,16.67
2023-05-19T22:15:26.239Z,16.55
2023-05-19T22:17:32.112Z,16.53
2023-05-19T22:19:36.658Z,16.54
2023-05-19T22:21:42.398Z,16.53
2023-05-19T22:23:49.288Z,16.51
2023-05-19T22:25:54.726Z,16.44
2023-05-19T22:27:58.948Z,16.42
2023-05-19T22:30:03.618Z,16.39
2023-05-19T22:32:12.251Z,16.37
2023-05-19T22:34:22.044Z,16.31
2023-05-19T22:36:26.317Z,16.29
2023-05-19T22:38:32.804Z,16.24
2023-05-19T22:40:40.795Z,16.23
2023-05-19T22:42:44.120Z,16.22
2023-05-19T22:44:50.145Z,16.16
2023-05-19T22:46:54.375Z,16.15
2023-05-19T22:49:02.451Z,16.06
2023-05-19T22:51:06.599Z,16.04
2023-05-19T22:53:11.419Z,15.99
2023-05-19T22:55:15.716Z,15.94
2023-05-19T22:57:21.347Z,15.88
2023-05-19T22:59:24.683Z,15.88
2023-05-19T23:01:29.510Z,15.80
2023-05-19T23:03:33.356Z,15.78
2023-05-19T23:05:39.224Z,15.70
2023-05-19T23:07:43.960Z,15.63
2023-05-19T23:09:50.775Z,15.56
2023-05-19T23:11:58.025Z,15.46
2023-05-19T23:14:02.705Z,15.36
2023-05-19T23:16:10.173Z,15.31
2023-05-19T23:18:15.333Z,15.29
2023-05-19T23:20:19.282Z,15.17
2023-05-19T23:22:22.901Z,15.03
2023-05-19T23:24:26.726Z,14.94
2023-05-19T23:26:32.741Z,14.85
2023-05-19T23:28:37.576Z,14.74
2023-05-19T23:30:49.683Z,14.70
2023-05-19T23:32:53.238Z,14.66
2023-05-19T23:34:56.531Z,14.68
2023-05-19T23:36:59.788Z,14.65
2023-05-19T23:39:05.132Z,14.63
2023-05-19T23:41:10.498Z,14.59
2023-05-19T23:43:14.255Z,14.56
2023-05-19T23:45:20.366Z,14.59
2023-05-19T23:47:29.961Z,14.54
2023-05-19T23:49:35.492Z,14.48
2023-05-19T23:51:38.592Z,14.45
2023-05-19T23:53:43.180Z,14.47
2023-05-19T23:55:50.398Z,14.46
2023-05-19T23:57:54.970Z,14.44
2023-05-19T23:59:58.340Z,14.42
